createdAt,value
2023-01-20T00:00:26.859Z,93041.50
2023-01-20T00:02:57.032Z,93051.69
2023-01-20T00:05:23.742Z,93043.38
2023-01-20T00:07:50.400Z,93056.00
2023-01-20T00:10:17.533Z,93060.09
2023-01-20T00:12:44.201Z,93063.03
2023-01-20T00:15:11.609Z,93072.50
2023-01-20T00:17:38.309Z,93067.97
2023-01-20T00:20:05.718Z,93063.97
2023-01-20T00:22:32.683Z,93079.19
2023-01-20T00:24:59.279Z,93075.56
2023-01-20T00:27:25.919Z,93080.78
2023-01-20T00:29:52.545Z,93076.41
2023-01-20T00:32:19.216Z,93080.84
2023-01-20T00:34:46.179Z,93084.66
2023-01-20T00:37:12.870Z,93084.19
2023-01-20T00:39:39.501Z,93091.13
2023-01-20T00:42:06.174Z,93098.56
2023-01-20T00:44:32.909Z,93084.56
2023-01-20T00:46:59.601Z,93088.09
2023-01-20T00:49:26.232Z,93093.28
2023-01-20T00:51:52.934Z,93102.25
2023-01-20T00:54:19.603Z,93097.28
2023-01-20T00:56:46.210Z,93101.78
2023-01-20T00:59:12.860Z,93097.84
2023-01-20T01:01:39.573Z,93098.44
2023-01-20T01:04:06.385Z,93100.88
2023-01-20T01:06:33.003Z,93106.84
2023-01-20T01:08:59.661Z,93110.84
2023-01-20T01:11:26.315Z,93111.25
2023-01-20T01:13:55.395Z,93111.53
2023-01-20T01:16:22.187Z,93121.13
2023-01-20T01:18:48.991Z,93120.84
2023-01-20T01:21:17.127Z,93125.34
2023-01-20T01:23:44.359Z,93132.97
2023-01-20T01:26:11.065Z,93128.88
2023-01-20T01:28:38.120Z,93137.53
2023-01-20T01:31:06.593Z,93134.25
2023-01-20T01:33:34.258Z,93147.03
2023-01-20T01:36:02.454Z,93142.59
2023-01-20T01:38:29.731Z,93150.88
2023-01-20T01:41:15.808Z,93160.50
2023-01-20T01:44:03.512Z,93152.97
2023-01-20T01:46:30.190Z,93147.03
2023-01-20T01:48:58.840Z,93162.47
2023-01-20T01:51:29.612Z,93154.19
2023-01-20T01:54:01.479Z,93156.72
2023-01-20T01:56:29.888Z,93154.03
2023-01-20T01:59:00.065Z,93158.63
2023-01-20T02:01:27.778Z,93160.28
2023-01-20T02:04:05.648Z,93149.94
2023-01-20T02:06:34.699Z,93149.16
2023-01-20T02:09:04.276Z,93159.97
2023-01-20T02:11:35.267Z,93156.00
2023-01-20T02:14:02.269Z,93154.41
2023-01-20T02:16:37.958Z,93159.88
2023-01-20T02:19:23.032Z,93165.22
2023-01-20T02:22:01.364Z,93168.97
2023-01-20T02:24:52.929Z,93166.94
2023-01-20T02:27:41.246Z,93164.22
2023-01-20T02:30:29.492Z,93175.56
2023-01-20T02:33:05.549Z,93166.66
2023-01-20T02:35:41.145Z,93174.34
2023-01-20T02:38:33.665Z,93175.88
2023-01-20T02:41:16.636Z,93172.19
2023-01-20T02:43:59.393Z,93180.25
2023-01-20T02:46:36.197Z,93179.66
2023-01-20T02:49:14.050Z,93177.47
2023-01-20T02:51:52.155Z,93175.38
2023-01-20T02:54:21.765Z,93173.63
2023-01-20T02:56:51.670Z,93181.44
2023-01-20T02:59:23.651Z,93182.19
2023-01-20T03:01:54.665Z,93184.56
2023-01-20T03:04:29.798Z,93182.91
2023-01-20T03:06:59.828Z,93189.41
2023-01-20T03:09:33.300Z,93185.59
2023-01-20T03:12:11.764Z,93197.63
2023-01-20T03:14:38.575Z,93196.31
2023-01-20T03:17:05.242Z,93198.19
2023-01-20T03:19:31.973Z,93206.47
2023-01-20T03:21:58.648Z,93195.16
2023-01-20T03:24:29.369Z,93204.47
2023-01-20T03:26:56.511Z,93209.09
2023-01-20T03:29:23.146Z,93214.69
2023-01-20T03:31:56.859Z,93204.41
2023-01-20T03:34:26.257Z,93206.88
2023-01-20T03:36:54.803Z,93215.22
2023-01-20T03:39:23.932Z,93215.09
2023-01-20T03:42:14.997Z,93221.75
2023-01-20T03:44:57.735Z,93222.31
2023-01-20T03:47:50.683Z,93229.03
2023-01-20T03:50:33.644Z,93231.03
2023-01-20T03:53:09.939Z,93234.03
2023-01-20T03:55:39.613Z,93228.91
2023-01-20T03:58:16.205Z,93228.91
2023-01-20T04:00:46.322Z,93240.41
2023-01-20T04:03:19.019Z,93237.34
2023-01-20T04:05:48.523Z,93237.72
2023-01-20T04:08:17.965Z,93239.47
2023-01-20T04:10:48.614Z,93246.03
2023-01-20T04:13:16.230Z,93248.00
2023-01-20T04:15:45.394Z,93248.44
2023-01-20T04:18:13.392Z,93248.00
2023-01-20T04:20:40.615Z,93253.22
2023-01-20T04:23:13.556Z,93251.78
2023-01-20T04:25:40.191Z,93248.44
2023-01-20T04:28:06.854Z,93267.31
2023-01-20T04:30:33.492Z,93262.41
2023-01-20T04:33:00.118Z,93272.69
2023-01-20T04:35:26.855Z,93263.88
2023-01-20T04:37:53.947Z,93269.53
2023-01-20T04:40:20.675Z,93271.66
2023-01-20T04:42:47.349Z,93279.03
2023-01-20T04:45:17.738Z,93278.81
2023-01-20T04:47:45.033Z,93282.84
2023-01-20T04:50:12.805Z,93278.13
2023-01-20T04:52:39.515Z,93285.72
2023-01-20T04:55:06.557Z,93276.47
2023-01-20T04:57:33.184Z,93284.75
2023-01-20T04:59:59.835Z,93290.56
2023-01-20T05:02:26.623Z,93298.22
2023-01-20T05:04:53.269Z,93299.22
2023-01-20T05:07:19.881Z,93307.34
2023-01-20T05:09:46.545Z,93311.22
2023-01-20T05:12:13.197Z,93314.16
2023-01-20T05:14:39.896Z,93317.44
2023-01-20T05:17:06.541Z,93318.66
2023-01-20T05:19:33.128Z,93320.38
2023-01-20T05:22:00.374Z,93325.22
2023-01-20T05:24:26.987Z,93325.28
2023-01-20T05:26:53.676Z,93330.50
2023-01-20T05:29:20.273Z,93332.72
2023-01-20T05:31:46.929Z,93330.38
2023-01-20T05:34:13.615Z,93333.09
2023-01-20T05:36:40.210Z,93342.84
2023-01-20T05:39:07.016Z,93342.31
2023-01-20T05:41:33.591Z,93350.78
2023-01-20T05:44:00.458Z,93355.75
2023-01-20T05:46:27.224Z,93358.50
2023-01-20T05:48:53.878Z,93360.28
2023-01-20T05:51:20.557Z,93369.66
2023-01-20T05:53:47.212Z,93374.19
2023-01-20T05:56:15.879Z,93370.22
2023-01-20T05:58:42.929Z,93382.06
2023-01-20T06:01:12.317Z,93378.53
2023-01-20T06:03:39.743Z,93382.63
2023-01-20T06:06:08.649Z,93388.56
2023-01-20T06:08:35.454Z,93382.63
2023-01-20T06:11:02.098Z,93399.91
2023-01-20T06:13:28.803Z,93396.59
2023-01-20T06:15:55.866Z,93391.25
2023-01-20T06:18:23.571Z,93400.22
2023-01-20T06:20:50.501Z,93397.06
2023-01-20T06:23:17.786Z,93403.19
2023-01-20T06:25:44.483Z,93403.25
2023-01-20T06:28:11.261Z,93411.69
2023-01-20T06:30:38.606Z,93412.16
2023-01-20T06:33:10.544Z,93421.34
2023-01-20T06:35:37.916Z,93423.06
2023-01-20T06:38:04.620Z,93428.59
2023-01-20T06:40:32.229Z,93434.63
2023-01-20T06:42:59.345Z,93424.81
2023-01-20T06:45:26.041Z,93428.53
2023-01-20T06:47:52.676Z,93430.97
2023-01-20T06:50:19.589Z,93437.69
2023-01-20T06:52:46.236Z,93439.63
2023-01-20T06:55:13.305Z,93437.41
2023-01-20T06:57:40.168Z,93449.28
2023-01-20T07:00:07.598Z,93452.59
2023-01-20T07:02:34.278Z,93456.31
2023-01-20T07:05:01.081Z,93458.66
2023-01-20T07:07:27.717Z,93462.91
2023-01-20T07:09:55.207Z,93467.53
2023-01-20T07:12:21.885Z,93459.09
2023-01-20T07:14:48.549Z,93470.16
2023-01-20T07:17:15.214Z,93471.38
2023-01-20T07:19:41.978Z,93470.09
2023-01-20T07:22:08.645Z,93484.72
2023-01-20T07:24:35.662Z,93479.16
2023-01-20T07:27:02.315Z,93481.41
2023-01-20T07:29:29.039Z,93485.56
2023-01-20T07:31:56.071Z,93490.91
2023-01-20T07:34:22.784Z,93490.72
2023-01-20T07:36:52.084Z,93494.31
2023-01-20T07:39:20.239Z,93503.09
2023-01-20T07:41:49.758Z,93498.44
2023-01-20T07:44:16.729Z,93505.38
2023-01-20T07:46:43.347Z,93505.88
2023-01-20T07:49:12.332Z,93511.63
2023-01-20T07:51:39.821Z,93516.59
2023-01-20T07:54:06.750Z,93514.38
2023-01-20T07:56:33.476Z,93513.47
2023-01-20T07:59:00.160Z,93518.28
2023-01-20T08:01:31.889Z,93535.19
2023-01-20T08:04:02.161Z,93529.06
2023-01-20T08:06:29.471Z,93537.00
2023-01-20T08:08:59.347Z,93524.06
2023-01-20T08:11:25.981Z,93536.84
2023-01-20T08:13:53.052Z,93532.56
2023-01-20T08:16:19.942Z,93535.16
2023-01-20T08:18:47.095Z,93545.78
2023-01-20T08:21:24.940Z,93546.25
2023-01-20T08:23:51.636Z,93551.25
2023-01-20T08:26:19.469Z,93546.56
2023-01-20T08:28:46.475Z,93548.69
2023-01-20T08:31:16.143Z,93557.94
2023-01-20T08:33:44.172Z,93556.84
2023-01-20T08:36:13.744Z,93556.06
2023-01-20T08:38:41.129Z,93558.75
2023-01-20T08:41:13.124Z,93560.38
2023-01-20T08:43:39.957Z,93561.28
2023-01-20T08:46:13.271Z,93560.34
2023-01-20T08:48:41.826Z,93568.34
2023-01-20T08:51:20.921Z,93576.91
2023-01-20T08:53:48.472Z,93583.66
2023-01-20T08:56:16.383Z,93583.28
2023-01-20T08:58:43.090Z,93587.75
2023-01-20T09:01:11.928Z,93597.97
2023-01-20T09:03:39.921Z,93604.34
2023-01-20T09:06:08.072Z,93609.28
2023-01-20T09:08:35.322Z,93608.72
2023-01-20T09:11:25.105Z,93618.03
2023-01-20T09:13:52.182Z,93614.69
2023-01-20T09:16:19.621Z,93618.28
2023-01-20T09:18:46.578Z,93626.19
2023-01-20T09:21:13.282Z,93622.06
2023-01-20T09:23:40.773Z,93618.09
2023-01-20T09:26:08.286Z,93622.03
2023-01-20T09:28:35.536Z,93619.38
2023-01-20T09:31:07.827Z,93616.00
2023-01-20T09:33:38.246Z,93622.13
2023-01-20T09:36:07.029Z,93628.22
2023-01-20T09:38:52.192Z,93635.56
2023-01-20T09:41:46.266Z,93633.19
2023-01-20T09:44:18.972Z,93628.41
2023-01-20T09:47:18.863Z,93629.00
2023-01-20T09:50:41.727Z,93636.28
2023-01-20T09:53:32.896Z,93638.59
2023-01-20T09:56:16.905Z,93639.25
2023-01-20T09:58:55.940Z,93638.94
2023-01-20T10:01:30.994Z,93636.97
2023-01-20T10:04:10.136Z,93639.56
2023-01-20T10:06:47.683Z,93643.59
2023-01-20T10:09:23.367Z,93643.44
2023-01-20T10:11:55.392Z,93646.81
2023-01-20T10:14:29.759Z,93646.03
2023-01-20T10:17:13.608Z,93641.06
2023-01-20T10:19:46.330Z,93656.44
2023-01-20T10:22:17.736Z,93652.84
2023-01-20T10:24:55.479Z,93645.94
2023-01-20T10:27:26.807Z,93645.50
2023-01-20T10:30:01.717Z,93652.00
2023-01-20T10:32:36.569Z,93647.69
2023-01-20T10:35:16.969Z,93653.34
2023-01-20T10:37:43.868Z,93657.22
2023-01-20T10:40:24.286Z,93648.59
2023-01-20T10:42:58.669Z,93650.28
2023-01-20T10:45:34.583Z,93653.06
2023-01-20T10:48:27.734Z,93653.59
2023-01-20T10:51:13.842Z,93647.66
2023-01-20T10:53:49.882Z,93642.50
2023-01-20T10:56:24.232Z,93641.09
2023-01-20T10:58:50.900Z,93653.78
2023-01-20T11:01:21.654Z,93650.34
2023-01-20T11:03:49.403Z,93656.53
2023-01-20T11:06:27.897Z,93651.22
2023-01-20T11:08:55.683Z,93652.34
2023-01-20T11:11:24.055Z,93652.28
2023-01-20T11:13:52.211Z,93647.84
2023-01-20T11:16:24.698Z,93654.69
2023-01-20T11:19:03.077Z,93663.28
2023-01-20T11:21:36.638Z,93661.44
2023-01-20T11:24:38.446Z,93657.09
2023-01-20T11:27:11.022Z,93656.09
2023-01-20T11:29:49.876Z,93659.78
2023-01-20T11:32:36.078Z,93667.63
2023-01-20T11:35:20.994Z,93663.44
2023-01-20T11:37:47.727Z,93656.38
2023-01-20T11:40:20.316Z,93662.06
2023-01-20T11:42:49.302Z,93670.75
2023-01-20T11:45:36.965Z,93665.13
2023-01-20T11:48:05.234Z,93667.94
2023-01-20T11:50:46.632Z,93673.34
2023-01-20T11:53:26.882Z,93673.75
2023-01-20T11:55:56.601Z,93671.03
2023-01-20T11:58:26.492Z,93672.72
2023-01-20T12:01:01.543Z,93672.13
2023-01-20T12:04:00.704Z,93674.19
2023-01-20T12:06:38.325Z,93664.00
2023-01-20T12:09:12.315Z,93672.22
2023-01-20T12:11:54.491Z,93672.19
2023-01-20T12:14:38.653Z,93670.72
2023-01-20T12:17:21.816Z,93685.53
2023-01-20T12:19:57.270Z,93678.38
2023-01-20T12:22:44.104Z,93670.88
2023-01-20T12:25:11.603Z,93673.34
2023-01-20T12:27:46.796Z,93678.31
2023-01-20T12:30:38.117Z,93675.28
2023-01-20T12:33:08.171Z,93675.13
2023-01-20T12:35:44.815Z,93673.66
2023-01-20T12:38:18.837Z,93680.88
2023-01-20T12:40:52.154Z,93677.28
2023-01-20T12:43:33.797Z,93677.78
2023-01-20T12:46:19.298Z,93679.00
2023-01-20T12:49:10.541Z,93683.00
2023-01-20T12:51:49.387Z,93686.34
2023-01-20T12:54:48.858Z,93687.22
2023-01-20T12:57:40.073Z,93688.63
2023-01-20T13:00:38.816Z,93695.97
2023-01-20T13:03:43.160Z,93703.22
2023-01-20T13:06:15.497Z,93702.78
2023-01-20T13:09:08.250Z,93694.97
2023-01-20T13:11:59.760Z,93701.28
2023-01-20T13:14:48.990Z,93701.56
2023-01-20T13:17:21.285Z,93696.38
2023-01-20T13:19:50.009Z,93701.41
2023-01-20T13:22:21.879Z,93701.00
2023-01-20T13:24:52.999Z,93708.63
2023-01-20T13:27:37.539Z,93706.56
2023-01-20T13:30:08.266Z,93705.16
2023-01-20T13:32:45.017Z,93709.97
2023-01-20T13:35:17.935Z,93711.94
2023-01-20T13:37:59.924Z,93703.13
2023-01-20T13:40:35.673Z,93716.75
2023-01-20T13:43:18.116Z,93714.28
2023-01-20T13:45:44.871Z,93724.47
2023-01-20T13:48:11.464Z,93724.78
2023-01-20T13:50:40.465Z,93720.56
2023-01-20T13:53:10.171Z,93736.63
2023-01-20T13:55:45.426Z,93725.38
2023-01-20T13:58:20.625Z,93737.03
2023-01-20T14:00:54.990Z,93733.28
2023-01-20T14:03:27.861Z,93739.47
2023-01-20T14:05:56.029Z,93734.81
2023-01-20T14:08:24.563Z,93744.69
2023-01-20T14:10:51.631Z,93737.50
2023-01-20T14:13:23.506Z,93742.53
2023-01-20T14:15:53.216Z,93744.56
2023-01-20T14:18:22.934Z,93750.44
2023-01-20T14:21:17.480Z,93747.47
2023-01-20T14:23:48.235Z,93746.16
2023-01-20T14:26:27.211Z,93762.53
2023-01-20T14:28:59.004Z,93748.06
2023-01-20T14:31:25.726Z,93756.00
2023-01-20T14:33:57.536Z,93752.53
2023-01-20T14:36:26.767Z,93761.09
2023-01-20T14:38:58.941Z,93759.13
2023-01-20T14:41:32.328Z,93764.28
2023-01-20T14:43:59.762Z,93766.66
2023-01-20T14:46:28.204Z,93766.03
2023-01-20T14:48:56.138Z,93764.97
2023-01-20T14:51:23.510Z,93765.06
2023-01-20T14:54:34.248Z,93771.19
2023-01-20T14:57:12.525Z,93773.31
2023-01-20T14:59:39.267Z,93776.53
2023-01-20T15:02:17.066Z,93782.34
2023-01-20T15:04:43.930Z,93781.81
2023-01-20T15:07:18.031Z,93782.69
2023-01-20T15:09:51.751Z,93783.97
2023-01-20T15:12:47.360Z,93783.03
2023-01-20T15:15:24.741Z,93781.34
2023-01-20T15:18:16.704Z,93786.16
2023-01-20T15:20:54.951Z,93787.19
2023-01-20T15:23:27.956Z,93790.50
2023-01-20T15:25:54.831Z,93795.34
2023-01-20T15:28:29.878Z,93788.72
2023-01-20T15:30:58.923Z,93783.47
2023-01-20T15:33:25.949Z,93795.81
2023-01-20T15:35:55.124Z,93803.63
2023-01-20T15:38:22.000Z,93803.28
2023-01-20T15:40:48.778Z,93818.50
2023-01-20T15:43:17.264Z,93816.03
2023-01-20T15:45:44.773Z,93819.38
2023-01-20T15:48:17.839Z,93815.25
2023-01-20T15:50:45.776Z,93809.13
2023-01-20T15:53:12.884Z,93823.97
2023-01-20T15:55:49.058Z,93824.41
2023-01-20T15:58:22.377Z,93834.13
2023-01-20T16:00:49.549Z,93830.59
2023-01-20T16:03:16.685Z,93828.63
2023-01-20T16:05:43.372Z,93838.63
2023-01-20T16:08:18.067Z,93837.16
2023-01-20T16:10:45.004Z,93838.19
2023-01-20T16:13:11.931Z,93838.41
2023-01-20T16:15:42.011Z,93846.13
2023-01-20T16:18:17.537Z,93844.84
2023-01-20T16:20:46.541Z,93844.94
2023-01-20T16:23:14.424Z,93843.56
2023-01-20T16:25:42.548Z,93846.31
2023-01-20T16:28:14.543Z,93854.25
2023-01-20T16:30:41.747Z,93855.19
2023-01-20T16:33:20.485Z,93846.78
2023-01-20T16:35:48.151Z,93853.28
2023-01-20T16:38:17.756Z,93863.25
2023-01-20T16:41:06.274Z,93855.66
2023-01-20T16:43:32.925Z,93861.34
2023-01-20T16:45:59.844Z,93864.97
2023-01-20T16:48:26.451Z,93867.31
2023-01-20T16:50:53.265Z,93870.81
2023-01-20T16:53:20.238Z,93873.84
2023-01-20T16:55:48.430Z,93874.66
2023-01-20T16:58:16.402Z,93880.34
2023-01-20T17:00:43.224Z,93883.22
2023-01-20T17:03:09.925Z,93880.69
2023-01-20T17:05:36.596Z,93876.59
2023-01-20T17:08:04.177Z,93888.75
2023-01-20T17:10:34.774Z,93887.63
2023-01-20T17:13:01.568Z,93890.00
2023-01-20T17:15:28.317Z,93889.03
2023-01-20T17:17:58.154Z,93897.53
2023-01-20T17:20:26.738Z,93905.84
2023-01-20T17:22:55.660Z,93899.72
2023-01-20T17:25:23.078Z,93898.94
2023-01-20T17:27:49.931Z,93902.88
2023-01-20T17:30:17.155Z,93894.38
2023-01-20T17:32:48.343Z,93898.31
2023-01-20T17:35:15.920Z,93912.31
2023-01-20T17:37:42.793Z,93907.69
2023-01-20T17:40:12.948Z,93914.34
2023-01-20T17:42:39.591Z,93912.31
2023-01-20T17:45:06.686Z,93917.16
2023-01-20T17:47:33.385Z,93917.44
2023-01-20T17:50:00.170Z,93921.22
2023-01-20T17:52:28.460Z,93922.81
2023-01-20T17:54:55.066Z,93919.19
2023-01-20T17:57:21.655Z,93925.50
2023-01-20T17:59:48.495Z,93923.09
2023-01-20T18:02:18.436Z,93919.59
2023-01-20T18:04:45.220Z,93918.00
2023-01-20T18:07:11.939Z,93922.69
2023-01-20T18:09:38.580Z,93927.06
2023-01-20T18:12:05.610Z,93922.38
2023-01-20T18:14:32.195Z,93930.66
2023-01-20T18:16:58.919Z,93927.34
2023-01-20T18:19:25.572Z,93926.00
2023-01-20T18:21:52.205Z,93935.63
2023-01-20T18:24:18.947Z,93929.03
2023-01-20T18:26:45.884Z,93935.84
2023-01-20T18:29:15.293Z,93934.06
2023-01-20T18:31:42.962Z,93942.41
2023-01-20T18:34:12.470Z,93942.91
2023-01-20T18:36:41.498Z,93937.41
2023-01-20T18:39:14.609Z,93934.03
2023-01-20T18:41:41.731Z,93934.00
2023-01-20T18:44:08.523Z,93938.06
2023-01-20T18:46:35.340Z,93938.00
2023-01-20T18:49:02.432Z,93939.09
2023-01-20T18:51:30.167Z,93938.00
2023-01-20T18:54:02.049Z,93940.84
2023-01-20T18:56:29.897Z,93942.59
2023-01-20T18:58:57.735Z,93947.38
2023-01-20T19:01:29.868Z,93944.53
2023-01-20T19:03:57.198Z,93946.41
2023-01-20T19:06:36.866Z,93954.09
2023-01-20T19:09:04.818Z,93948.34
2023-01-20T19:11:35.803Z,93957.31
2023-01-20T19:14:03.156Z,93958.34
2023-01-20T19:16:32.721Z,93952.53
2023-01-20T19:19:01.932Z,93947.13
2023-01-20T19:21:32.474Z,93951.84
2023-01-20T19:24:01.662Z,93954.09
2023-01-20T19:26:28.680Z,93951.50
2023-01-20T19:28:56.912Z,93959.78
2023-01-20T19:31:24.537Z,93955.72
2023-01-20T19:33:51.505Z,93962.31
2023-01-20T19:36:19.566Z,93955.44
2023-01-20T19:38:46.909Z,93963.59
2023-01-20T19:41:19.191Z,93961.72
2023-01-20T19:43:46.246Z,93969.00
2023-01-20T19:46:16.027Z,93959.81
2023-01-20T19:48:43.306Z,93970.25
2023-01-20T19:51:13.639Z,93965.44
2023-01-20T19:53:41.502Z,93963.41
2023-01-20T19:56:16.268Z,93959.25
2023-01-20T19:58:44.090Z,93965.16
2023-01-20T20:01:22.822Z,93954.03
2023-01-20T20:03:51.617Z,93958.28
2023-01-20T20:06:23.246Z,93960.75
2023-01-20T20:08:51.042Z,93957.09
2023-01-20T20:11:18.001Z,93971.31
2023-01-20T20:13:44.726Z,93975.81
2023-01-20T20:16:11.472Z,93969.19
2023-01-20T20:18:38.224Z,93975.03
2023-01-20T20:21:05.826Z,93966.75
2023-01-20T20:23:32.544Z,93962.91
2023-01-20T20:25:59.212Z,93965.09
2023-01-20T20:28:27.620Z,93971.00
2023-01-20T20:30:55.606Z,93970.69
2023-01-20T20:33:23.978Z,93967.47
2023-01-20T20:35:50.913Z,93968.03
2023-01-20T20:38:17.619Z,93964.19
2023-01-20T20:40:44.331Z,93970.13
2023-01-20T20:43:10.989Z,93970.22
2023-01-20T20:45:37.696Z,93965.78
2023-01-20T20:48:04.871Z,93970.69
2023-01-20T20:50:31.618Z,93979.59
2023-01-20T20:52:59.129Z,93969.81
2023-01-20T20:55:26.255Z,93969.34
2023-01-20T20:57:53.084Z,93972.56
2023-01-20T21:00:23.503Z,93957.88
2023-01-20T21:02:50.543Z,93974.06
2023-01-20T21:05:18.937Z,93977.41
2023-01-20T21:07:46.011Z,93980.19
2023-01-20T21:10:15.633Z,93984.00
2023-01-20T21:12:43.814Z,93982.84
2023-01-20T21:15:11.710Z,93988.38
2023-01-20T21:17:38.802Z,93992.78
2023-01-20T21:20:07.253Z,93990.72
2023-01-20T21:22:34.349Z,93989.94
2023-01-20T21:25:01.051Z,93985.09
2023-01-20T21:27:27.735Z,93984.44
2023-01-20T21:29:54.478Z,93991.31
2023-01-20T21:32:21.127Z,93993.09
2023-01-20T21:34:47.751Z,93994.66
2023-01-20T21:37:14.899Z,93997.31
2023-01-20T21:39:41.503Z,93999.97
2023-01-20T21:42:09.118Z,94006.97
2023-01-20T21:44:36.450Z,93997.72
2023-01-20T21:47:08.041Z,94009.25
2023-01-20T21:49:53.725Z,94005.41
2023-01-20T21:52:41.081Z,94015.13
2023-01-20T21:55:25.689Z,94012.47
2023-01-20T21:57:52.342Z,94004.59
2023-01-20T22:00:19.402Z,94009.28
2023-01-20T22:02:46.153Z,94007.72
2023-01-20T22:05:13.401Z,94010.94
2023-01-20T22:07:40.145Z,94017.13
2023-01-20T22:10:07.757Z,94007.59
2023-01-20T22:12:35.544Z,94012.31
2023-01-20T22:15:03.437Z,94013.75
2023-01-20T22:17:30.266Z,94005.94
2023-01-20T22:19:57.014Z,94009.88
2023-01-20T22:22:23.643Z,94006.00
2023-01-20T22:24:50.459Z,94013.69
2023-01-20T22:27:17.163Z,94011.09
2023-01-20T22:29:43.818Z,94016.16
2023-01-20T22:32:10.515Z,94017.94
2023-01-20T22:34:37.258Z,94019.53
2023-01-20T22:37:03.906Z,94012.38
2023-01-20T22:39:30.616Z,94017.97
2023-01-20T22:41:57.349Z,94016.59
2023-01-20T22:44:24.047Z,94018.47
2023-01-20T22:46:50.693Z,94021.69
2023-01-20T22:49:17.400Z,94013.66
2023-01-20T22:51:44.050Z,94012.06
2023-01-20T22:54:10.964Z,94016.38
2023-01-20T22:56:39.076Z,94019.53
2023-01-20T22:59:06.247Z,94017.97
2023-01-20T23:01:35.254Z,94021.84
2023-01-20T23:04:04.908Z,94018.78
2023-01-20T23:06:34.273Z,94019.88
2023-01-20T23:09:04.452Z,94026.97
2023-01-20T23:11:31.548Z,94021.50
2023-01-20T23:13:58.355Z,94016.25
2023-01-20T23:16:25.099Z,94017.84
2023-01-20T23:18:52.422Z,94025.72
2023-01-20T23:21:20.073Z,94023.31
2023-01-20T23:23:46.829Z,94018.78
2023-01-20T23:26:16.804Z,94026.91
2023-01-20T23:28:45.008Z,94020.88
2023-01-20T23:31:16.044Z,94029.56
2023-01-20T23:33:43.797Z,94027.25
2023-01-20T23:36:17.243Z,94021.50
2023-01-20T23:38:44.826Z,94020.88
2023-01-20T23:41:13.191Z,94018.13
2023-01-20T23:43:40.957Z,94031.28
2023-01-20T23:46:08.812Z,94025.72
2023-01-20T23:48:36.229Z,94024.16
2023-01-20T23:51:03.972Z,94026.19
2023-01-20T23:53:32.759Z,94034.78
2023-01-20T23:56:01.280Z,94023.78
2023-01-20T23:58:28.267Z,94036.63
